sensor_id;sensor_type;location;lat;lon;timestamp;P1;durP1;ratioP1;P2;durP2;ratioP2
54589;SDS011;40485;53.172;5.416;2022-07-10T00:00:04;6.63;;;1.38;;
54589;SDS011;40485;53.172;5.416;2022-07-10T00:02:38;2.33;;;0.75;;
54589;SDS011;40485;53.172;5.416;2022-07-10T00:05:05;8.48;;;1.10;;
54589;SDS011;40485;53.172;5.416;2022-07-10T00:07:32;4.85;;;1.10;;
54589;SDS011;40485;53.172;5.416;2022-07-10T00:09:58;6.05;;;0.90;;
54589;SDS011;40485;53.172;5.416;2022-07-10T00:12:23;2.53;;;0.60;;
54589;SDS011;40485;53.172;5.416;2022-07-10T00:14:49;5.45;;;1.58;;
54589;SDS011;40485;53.172;5.416;2022-07-10T00:17:15;4.10;;;1.02;;
54589;SDS011;40485;53.172;5.416;2022-07-10T00:19:41;6.70;;;0.93;;
54589;SDS011;40485;53.172;5.416;2022-07-10T00:22:06;6.63;;;0.90;;
54589;SDS011;40485;53.172;5.416;2022-07-10T00:24:32;4.38;;;0.93;;
54589;SDS011;40485;53.172;5.416;2022-07-10T00:26:58;5.07;;;0.88;;
54589;SDS011;40485;53.172;5.416;2022-07-10T00:29:24;5.60;;;0.93;;
54589;SDS011;40485;53.172;5.416;2022-07-10T00:31:50;7.35;;;1.10;;
54589;SDS011;40485;53.172;5.416;2022-07-10T00:34:15;9.43;;;1.33;;
54589;SDS011;40485;53.172;5.416;2022-07-10T00:36:41;6.45;;;1.00;;
54589;SDS011;40485;53.172;5.416;2022-07-10T00:39:06;5.05;;;1.13;;
54589;SDS011;40485;53.172;5.416;2022-07-10T00:41:32;3.88;;;0.65;;
54589;SDS011;40485;53.172;5.416;2022-07-10T00:43:58;3.17;;;0.80;;
54589;SDS011;40485;53.172;5.416;2022-07-10T00:46:26;4.05;;;1.05;;
54589;SDS011;40485;53.172;5.416;2022-07-10T00:48:52;9.60;;;1.10;;
54589;SDS011;40485;53.172;5.416;2022-07-10T00:51:20;9.73;;;1.00;;
54589;SDS011;40485;53.172;5.416;2022-07-10T00:53:50;9.63;;;1.00;;
54589;SDS011;40485;53.172;5.416;2022-07-10T00:56:16;3.97;;;0.80;;
54589;SDS011;40485;53.172;5.416;2022-07-10T00:58:45;5.15;;;1.25;;
54589;SDS011;40485;53.172;5.416;2022-07-10T01:01:11;8.38;;;1.10;;
54589;SDS011;40485;53.172;5.416;2022-07-10T01:03:37;10.30;;;1.10;;
54589;SDS011;40485;53.172;5.416;2022-07-10T01:06:03;6.22;;;1.20;;
54589;SDS011;40485;53.172;5.416;2022-07-10T01:08:29;6.53;;;0.85;;
54589;SDS011;40485;53.172;5.416;2022-07-10T01:10:54;6.50;;;0.73;;
54589;SDS011;40485;53.172;5.416;2022-07-10T01:13:21;5.65;;;0.90;;
54589;SDS011;40485;53.172;5.416;2022-07-10T01:15:46;3.08;;;0.60;;
54589;SDS011;40485;53.172;5.416;2022-07-10T01:18:13;8.05;;;0.80;;
54589;SDS011;40485;53.172;5.416;2022-07-10T01:20:42;3.88;;;0.75;;
54589;SDS011;40485;53.172;5.416;2022-07-10T01:23:07;6.18;;;0.95;;
54589;SDS011;40485;53.172;5.416;2022-07-10T01:25:33;5.18;;;0.90;;
54589;SDS011;40485;53.172;5.416;2022-07-10T01:27:59;8.82;;;1.45;;
54589;SDS011;40485;53.172;5.416;2022-07-10T01:30:25;5.35;;;0.90;;
54589;SDS011;40485;53.172;5.416;2022-07-10T01:32:51;8.23;;;1.00;;
54589;SDS011;40485;53.172;5.416;2022-07-10T01:35:17;8.25;;;1.45;;
54589;SDS011;40485;53.172;5.416;2022-07-10T01:37:43;5.43;;;0.65;;
54589;SDS011;40485;53.172;5.416;2022-07-10T01:40:09;7.18;;;1.42;;
54589;SDS011;40485;53.172;5.416;2022-07-10T01:42:35;7.30;;;1.05;;
54589;SDS011;40485;53.172;5.416;2022-07-10T01:45:03;5.85;;;1.00;;
54589;SDS011;40485;53.172;5.416;2022-07-10T01:47:30;4.22;;;0.90;;
54589;SDS011;40485;53.172;5.416;2022-07-10T01:49:55;3.25;;;1.02;;
54589;SDS011;40485;53.172;5.416;2022-07-10T01:52:21;11.77;;;1.48;;
54589;SDS011;40485;53.172;5.416;2022-07-10T01:54:47;8.88;;;1.13;;
54589;SDS011;40485;53.172;5.416;2022-07-10T01:57:13;6.78;;;1.00;;
54589;SDS011;40485;53.172;5.416;2022-07-10T01:59:39;5.07;;;1.30;;
54589;SDS011;40485;53.172;5.416;2022-07-10T02:02:06;7.15;;;1.17;;
54589;SDS011;40485;53.172;5.416;2022-07-10T02:04:32;6.40;;;1.30;;
54589;SDS011;40485;53.172;5.416;2022-07-10T02:07:11;3.88;;;0.75;;
54589;SDS011;40485;53.172;5.416;2022-07-10T02:09:42;3.05;;;0.57;;
54589;SDS011;40485;53.172;5.416;2022-07-10T02:12:08;9.43;;;1.13;;
54589;SDS011;40485;53.172;5.416;2022-07-10T02:14:35;6.65;;;0.80;;
54589;SDS011;40485;53.172;5.416;2022-07-10T02:17:01;4.60;;;1.00;;
54589;SDS011;40485;53.172;5.416;2022-07-10T02:19:26;13.25;;;1.10;;
54589;SDS011;40485;53.172;5.416;2022-07-10T02:21:52;5.05;;;1.00;;
54589;SDS011;40485;53.172;5.416;2022-07-10T02:24:18;3.45;;;0.93;;
54589;SDS011;40485;53.172;5.416;2022-07-10T02:26:44;6.95;;;1.63;;
54589;SDS011;40485;53.172;5.416;2022-07-10T02:29:09;3.58;;;1.15;;
54589;SDS011;40485;53.172;5.416;2022-07-10T02:31:35;8.32;;;0.82;;
54589;SDS011;40485;53.172;5.416;2022-07-10T02:34:05;6.35;;;0.95;;
54589;SDS011;40485;53.172;5.416;2022-07-10T02:36:32;7.88;;;1.15;;
54589;SDS011;40485;53.172;5.416;2022-07-10T02:38:58;6.40;;;1.23;;
54589;SDS011;40485;53.172;5.416;2022-07-10T02:41:24;7.38;;;1.20;;
54589;SDS011;40485;53.172;5.416;2022-07-10T02:43:50;6.95;;;1.17;;
54589;SDS011;40485;53.172;5.416;2022-07-10T02:46:15;5.95;;;1.33;;
54589;SDS011;40485;53.172;5.416;2022-07-10T02:48:41;4.20;;;0.93;;
54589;SDS011;40485;53.172;5.416;2022-07-10T02:51:06;4.82;;;1.00;;
54589;SDS011;40485;53.172;5.416;2022-07-10T02:53:32;4.72;;;1.00;;
54589;SDS011;40485;53.172;5.416;2022-07-10T02:55:58;3.83;;;0.95;;
54589;SDS011;40485;53.172;5.416;2022-07-10T02:58:23;4.43;;;0.77;;
54589;SDS011;40485;53.172;5.416;2022-07-10T03:00:49;5.82;;;0.98;;
54589;SDS011;40485;53.172;5.416;2022-07-10T03:03:14;3.38;;;1.00;;
54589;SDS011;40485;53.172;5.416;2022-07-10T03:05:42;7.25;;;1.13;;
54589;SDS011;40485;53.172;5.416;2022-07-10T03:08:09;5.60;;;2.13;;
54589;SDS011;40485;53.172;5.416;2022-07-10T03:10:35;7.63;;;1.50;;
54589;SDS011;40485;53.172;5.416;2022-07-10T03:13:01;6.78;;;1.02;;
54589;SDS011;40485;53.172;5.416;2022-07-10T03:15:27;10.15;;;2.08;;
54589;SDS011;40485;53.172;5.416;2022-07-10T03:17:53;14.68;;;1.85;;
54589;SDS011;40485;53.172;5.416;2022-07-10T03:20:18;3.10;;;1.10;;
54589;SDS011;40485;53.172;5.416;2022-07-10T03:22:44;6.95;;;1.02;;
54589;SDS011;40485;53.172;5.416;2022-07-10T03:25:10;3.55;;;1.17;;
54589;SDS011;40485;53.172;5.416;2022-07-10T03:27:36;6.30;;;1.58;;
54589;SDS011;40485;53.172;5.416;2022-07-10T03:30:02;9.05;;;2.10;;
54589;SDS011;40485;53.172;5.416;2022-07-10T03:32:29;3.97;;;1.30;;
54589;SDS011;40485;53.172;5.416;2022-07-10T03:34:54;10.38;;;1.58;;
54589;SDS011;40485;53.172;5.416;2022-07-10T03:37:20;3.38;;;1.00;;
54589;SDS011;40485;53.172;5.416;2022-07-10T03:39:46;5.68;;;0.88;;
54589;SDS011;40485;53.172;5.416;2022-07-10T03:42:11;7.03;;;1.10;;
54589;SDS011;40485;53.172;5.416;2022-07-10T03:44:37;5.55;;;0.88;;
54589;SDS011;40485;53.172;5.416;2022-07-10T03:47:03;7.20;;;1.65;;
54589;SDS011;40485;53.172;5.416;2022-07-10T03:49:29;3.58;;;0.77;;
54589;SDS011;40485;53.172;5.416;2022-07-10T03:51:58;3.67;;;1.13;;
54589;SDS011;40485;53.172;5.416;2022-07-10T03:54:25;4.32;;;1.20;;
54589;SDS011;40485;53.172;5.416;2022-07-10T03:56:50;4.20;;;0.90;;
54589;SDS011;40485;53.172;5.416;2022-07-10T03:59:34;6.88;;;1.50;;
54589;SDS011;40485;53.172;5.416;2022-07-10T04:02:00;10.52;;;1.23;;
54589;SDS011;40485;53.172;5.416;2022-07-10T04:04:26;5.95;;;1.15;;
54589;SDS011;40485;53.172;5.416;2022-07-10T04:06:51;8.23;;;1.33;;
54589;SDS011;40485;53.172;5.416;2022-07-10T04:09:17;6.30;;;1.17;;
54589;SDS011;40485;53.172;5.416;2022-07-10T04:11:42;5.97;;;1.42;;
54589;SDS011;40485;53.172;5.416;2022-07-10T04:14:08;7.03;;;2.00;;
54589;SDS011;40485;53.172;5.416;2022-07-10T04:16:33;6.07;;;1.52;;
54589;SDS011;40485;53.172;5.416;2022-07-10T04:18:59;11.88;;;1.75;;
54589;SDS011;40485;53.172;5.416;2022-07-10T04:21:25;11.80;;;1.00;;
54589;SDS011;40485;53.172;5.416;2022-07-10T04:23:50;9.50;;;1.38;;
54589;SDS011;40485;53.172;5.416;2022-07-10T04:26:16;6.32;;;1.13;;
54589;SDS011;40485;53.172;5.416;2022-07-10T04:28:42;2.33;;;0.88;;
54589;SDS011;40485;53.172;5.416;2022-07-10T04:31:07;3.92;;;1.27;;
54589;SDS011;40485;53.172;5.416;2022-07-10T04:33:33;9.25;;;1.52;;
54589;SDS011;40485;53.172;5.416;2022-07-10T04:35:59;4.60;;;1.13;;
54589;SDS011;40485;53.172;5.416;2022-07-10T04:38:25;8.18;;;1.42;;
54589;SDS011;40485;53.172;5.416;2022-07-10T04:40:50;6.10;;;1.30;;
54589;SDS011;40485;53.172;5.416;2022-07-10T04:43:16;7.20;;;1.35;;
54589;SDS011;40485;53.172;5.416;2022-07-10T04:45:41;11.18;;;1.80;;
54589;SDS011;40485;53.172;5.416;2022-07-10T04:48:07;4.63;;;1.00;;
54589;SDS011;40485;53.172;5.416;2022-07-10T04:50:33;6.55;;;1.45;;
54589;SDS011;40485;53.172;5.416;2022-07-10T04:52:59;5.38;;;1.13;;
54589;SDS011;40485;53.172;5.416;2022-07-10T04:55:25;3.20;;;1.27;;
54589;SDS011;40485;53.172;5.416;2022-07-10T04:57:51;3.70;;;0.98;;
54589;SDS011;40485;53.172;5.416;2022-07-10T05:00:16;2.67;;;0.88;;
54589;SDS011;40485;53.172;5.416;2022-07-10T05:02:42;3.42;;;1.00;;
54589;SDS011;40485;53.172;5.416;2022-07-10T05:05:08;3.63;;;1.05;;
54589;SDS011;40485;53.172;5.416;2022-07-10T05:07:34;2.13;;;0.77;;
54589;SDS011;40485;53.172;5.416;2022-07-10T05:09:59;5.03;;;1.45;;
54589;SDS011;40485;53.172;5.416;2022-07-10T05:12:25;7.00;;;1.45;;
54589;SDS011;40485;53.172;5.416;2022-07-10T05:14:51;5.35;;;1.17;;
54589;SDS011;40485;53.172;5.416;2022-07-10T05:17:17;7.15;;;1.30;;
54589;SDS011;40485;53.172;5.416;2022-07-10T05:19:42;7.60;;;1.10;;
54589;SDS011;40485;53.172;5.416;2022-07-10T05:22:08;9.73;;;1.60;;
54589;SDS011;40485;53.172;5.416;2022-07-10T05:24:34;4.47;;;1.23;;
54589;SDS011;40485;53.172;5.416;2022-07-10T05:27:01;5.80;;;1.00;;
54589;SDS011;40485;53.172;5.416;2022-07-10T05:29:26;5.72;;;0.90;;
54589;SDS011;40485;53.172;5.416;2022-07-10T05:31:52;3.65;;;1.02;;
54589;SDS011;40485;53.172;5.416;2022-07-10T05:34:18;16.23;;;1.83;;
54589;SDS011;40485;53.172;5.416;2022-07-10T05:36:43;4.93;;;0.90;;
54589;SDS011;40485;53.172;5.416;2022-07-10T05:39:09;8.85;;;1.20;;
54589;SDS011;40485;53.172;5.416;2022-07-10T05:41:35;4.43;;;1.10;;
54589;SDS011;40485;53.172;5.416;2022-07-10T05:44:01;15.95;;;1.20;;
54589;SDS011;40485;53.172;5.416;2022-07-10T05:46:27;6.68;;;0.88;;
54589;SDS011;40485;53.172;5.416;2022-07-10T05:48:52;6.85;;;1.25;;
54589;SDS011;40485;53.172;5.416;2022-07-10T05:51:18;4.43;;;1.60;;
54589;SDS011;40485;53.172;5.416;2022-07-10T05:53:44;10.77;;;1.45;;
54589;SDS011;40485;53.172;5.416;2022-07-10T05:56:09;5.95;;;0.90;;
54589;SDS011;40485;53.172;5.416;2022-07-10T05:58:35;5.72;;;1.00;;
54589;SDS011;40485;53.172;5.416;2022-07-10T06:01:00;3.22;;;0.85;;
54589;SDS011;40485;53.172;5.416;2022-07-10T06:03:26;2.03;;;0.65;;
54589;SDS011;40485;53.172;5.416;2022-07-10T06:05:52;2.97;;;0.90;;
54589;SDS011;40485;53.172;5.416;2022-07-10T06:08:17;4.53;;;0.95;;
54589;SDS011;40485;53.172;5.416;2022-07-10T06:10:43;3.33;;;0.85;;
54589;SDS011;40485;53.172;5.416;2022-07-10T06:13:12;2.08;;;0.80;;
54589;SDS011;40485;53.172;5.416;2022-07-10T06:15:38;3.00;;;0.82;;
54589;SDS011;40485;53.172;5.416;2022-07-10T06:18:04;3.50;;;0.90;;
54589;SDS011;40485;53.172;5.416;2022-07-10T06:20:29;2.67;;;0.75;;
54589;SDS011;40485;53.172;5.416;2022-07-10T06:22:56;5.65;;;1.00;;
54589;SDS011;40485;53.172;5.416;2022-07-10T06:25:22;2.88;;;1.20;;
54589;SDS011;40485;53.172;5.416;2022-07-10T06:27:48;6.50;;;1.00;;
54589;SDS011;40485;53.172;5.416;2022-07-10T06:30:14;3.80;;;1.05;;
54589;SDS011;40485;53.172;5.416;2022-07-10T06:32:40;1.70;;;0.75;;
54589;SDS011;40485;53.172;5.416;2022-07-10T06:35:06;6.38;;;1.02;;
54589;SDS011;40485;53.172;5.416;2022-07-10T06:37:32;3.40;;;0.75;;
54589;SDS011;40485;53.172;5.416;2022-07-10T06:39:58;4.18;;;1.38;;
54589;SDS011;40485;53.172;5.416;2022-07-10T06:42:24;2.83;;;0.80;;
54589;SDS011;40485;53.172;5.416;2022-07-10T06:44:49;3.33;;;1.13;;
54589;SDS011;40485;53.172;5.416;2022-07-10T06:47:16;2.70;;;0.70;;
54589;SDS011;40485;53.172;5.416;2022-07-10T06:50:02;6.80;;;0.93;;
54589;SDS011;40485;53.172;5.416;2022-07-10T06:52:31;7.25;;;1.05;;
54589;SDS011;40485;53.172;5.416;2022-07-10T06:54:58;3.85;;;0.75;;
54589;SDS011;40485;53.172;5.416;2022-07-10T06:57:24;4.28;;;0.88;;
54589;SDS011;40485;53.172;5.416;2022-07-10T06:59:50;4.47;;;1.00;;
54589;SDS011;40485;53.172;5.416;2022-07-10T07:02:17;5.95;;;0.88;;
54589;SDS011;40485;53.172;5.416;2022-07-10T07:04:42;4.13;;;0.95;;
54589;SDS011;40485;53.172;5.416;2022-07-10T07:07:09;2.13;;;0.70;;
54589;SDS011;40485;53.172;5.416;2022-07-10T07:09:35;2.58;;;0.80;;
54589;SDS011;40485;53.172;5.416;2022-07-10T07:12:01;2.35;;;0.98;;
54589;SDS011;40485;53.172;5.416;2022-07-10T07:14:26;5.88;;;0.90;;
54589;SDS011;40485;53.172;5.416;2022-07-10T07:16:52;2.67;;;0.60;;
54589;SDS011;40485;53.172;5.416;2022-07-10T07:19:28;6.28;;;1.10;;
54589;SDS011;40485;53.172;5.416;2022-07-10T07:22:00;2.08;;;0.70;;
54589;SDS011;40485;53.172;5.416;2022-07-10T07:24:44;2.10;;;0.65;;
54589;SDS011;40485;53.172;5.416;2022-07-10T07:27:10;8.18;;;1.60;;
54589;SDS011;40485;53.172;5.416;2022-07-10T07:29:36;5.25;;;0.95;;
54589;SDS011;40485;53.172;5.416;2022-07-10T07:32:02;5.25;;;1.10;;
54589;SDS011;40485;53.172;5.416;2022-07-10T07:34:28;4.60;;;0.75;;
54589;SDS011;40485;53.172;5.416;2022-07-10T07:36:56;1.73;;;0.80;;
54589;SDS011;40485;53.172;5.416;2022-07-10T07:39:22;3.20;;;0.93;;
54589;SDS011;40485;53.172;5.416;2022-07-10T07:41:47;5.20;;;1.45;;
54589;SDS011;40485;53.172;5.416;2022-07-10T07:44:13;4.30;;;1.08;;
54589;SDS011;40485;53.172;5.416;2022-07-10T07:46:41;1.92;;;0.80;;
54589;SDS011;40485;53.172;5.416;2022-07-10T07:49:06;4.55;;;0.85;;
54589;SDS011;40485;53.172;5.416;2022-07-10T07:51:32;4.63;;;1.08;;
54589;SDS011;40485;53.172;5.416;2022-07-10T07:53:58;2.30;;;0.93;;
54589;SDS011;40485;53.172;5.416;2022-07-10T07:56:24;7.93;;;1.10;;
54589;SDS011;40485;53.172;5.416;2022-07-10T07:58:49;4.18;;;1.02;;
54589;SDS011;40485;53.172;5.416;2022-07-10T08:01:15;5.80;;;0.68;;
54589;SDS011;40485;53.172;5.416;2022-07-10T08:03:41;5.25;;;0.90;;
54589;SDS011;40485;53.172;5.416;2022-07-10T08:06:06;7.85;;;1.05;;
54589;SDS011;40485;53.172;5.416;2022-07-10T08:08:33;3.35;;;0.82;;
54589;SDS011;40485;53.172;5.416;2022-07-10T08:10:58;6.00;;;1.20;;
54589;SDS011;40485;53.172;5.416;2022-07-10T08:13:24;3.65;;;0.85;;
54589;SDS011;40485;53.172;5.416;2022-07-10T08:15:50;4.68;;;0.98;;
54589;SDS011;40485;53.172;5.416;2022-07-10T08:18:15;3.85;;;1.02;;
54589;SDS011;40485;53.172;5.416;2022-07-10T08:20:41;7.38;;;1.20;;
54589;SDS011;40485;53.172;5.416;2022-07-10T08:23:06;6.80;;;1.25;;
54589;SDS011;40485;53.172;5.416;2022-07-10T08:25:32;1.58;;;0.77;;
54589;SDS011;40485;53.172;5.416;2022-07-10T08:28:02;6.05;;;1.00;;
54589;SDS011;40485;53.172;5.416;2022-07-10T08:30:28;9.32;;;1.17;;
54589;SDS011;40485;53.172;5.416;2022-07-10T08:32:54;2.70;;;0.90;;
54589;SDS011;40485;53.172;5.416;2022-07-10T08:35:20;5.28;;;1.42;;
54589;SDS011;40485;53.172;5.416;2022-07-10T08:37:46;5.07;;;1.10;;
54589;SDS011;40485;53.172;5.416;2022-07-10T08:40:12;3.08;;;1.00;;
54589;SDS011;40485;53.172;5.416;2022-07-10T08:42:42;2.25;;;0.90;;
54589;SDS011;40485;53.172;5.416;2022-07-10T08:45:12;9.63;;;1.05;;
54589;SDS011;40485;53.172;5.416;2022-07-10T08:47:38;2.85;;;0.82;;
54589;SDS011;40485;53.172;5.416;2022-07-10T08:50:21;2.80;;;1.60;;
54589;SDS011;40485;53.172;5.416;2022-07-10T08:53:03;9.48;;;1.50;;
54589;SDS011;40485;53.172;5.416;2022-07-10T08:55:33;2.95;;;1.00;;
54589;SDS011;40485;53.172;5.416;2022-07-10T08:58:01;2.88;;;0.90;;
54589;SDS011;40485;53.172;5.416;2022-07-10T09:00:29;2.97;;;0.88;;
54589;SDS011;40485;53.172;5.416;2022-07-10T09:02:55;5.47;;;0.95;;
54589;SDS011;40485;53.172;5.416;2022-07-10T09:05:22;2.75;;;0.75;;
54589;SDS011;40485;53.172;5.416;2022-07-10T09:07:48;4.93;;;1.05;;
54589;SDS011;40485;53.172;5.416;2022-07-10T09:10:14;6.10;;;1.00;;
54589;SDS011;40485;53.172;5.416;2022-07-10T09:12:49;4.80;;;0.80;;
54589;SDS011;40485;53.172;5.416;2022-07-10T09:15:18;3.50;;;0.65;;
54589;SDS011;40485;53.172;5.416;2022-07-10T09:23:16;4.28;;;1.00;;
54589;SDS011;40485;53.172;5.416;2022-07-10T09:25:46;4.45;;;1.13;;
54589;SDS011;40485;53.172;5.416;2022-07-10T09:28:13;3.67;;;1.00;;
54589;SDS011;40485;53.172;5.416;2022-07-10T09:30:42;4.53;;;0.88;;
54589;SDS011;40485;53.172;5.416;2022-07-10T09:33:41;3.13;;;0.80;;
54589;SDS011;40485;53.172;5.416;2022-07-10T09:36:05;6.32;;;0.93;;
54589;SDS011;40485;53.172;5.416;2022-07-10T09:41:14;3.55;;;1.00;;
54589;SDS011;40485;53.172;5.416;2022-07-10T09:46:22;3.30;;;0.50;;
54589;SDS011;40485;53.172;5.416;2022-07-10T09:49:00;3.28;;;0.80;;
54589;SDS011;40485;53.172;5.416;2022-07-10T09:51:35;3.92;;;1.25;;
54589;SDS011;40485;53.172;5.416;2022-07-10T09:54:04;5.15;;;0.85;;
54589;SDS011;40485;53.172;5.416;2022-07-10T09:56:32;3.22;;;0.70;;
54589;SDS011;40485;53.172;5.416;2022-07-10T09:59:02;4.88;;;0.73;;
54589;SDS011;40485;53.172;5.416;2022-07-10T10:01:31;3.28;;;1.15;;
54589;SDS011;40485;53.172;5.416;2022-07-10T10:03:59;1.52;;;0.57;;
54589;SDS011;40485;53.172;5.416;2022-07-10T10:06:26;4.78;;;1.13;;
54589;SDS011;40485;53.172;5.416;2022-07-10T10:09:00;5.00;;;1.02;;
54589;SDS011;40485;53.172;5.416;2022-07-10T10:11:31;6.22;;;1.00;;
54589;SDS011;40485;53.172;5.416;2022-07-10T10:14:00;5.28;;;1.23;;
54589;SDS011;40485;53.172;5.416;2022-07-10T10:16:27;2.38;;;0.75;;
54589;SDS011;40485;53.172;5.416;2022-07-10T10:18:53;4.65;;;0.82;;
54589;SDS011;40485;53.172;5.416;2022-07-10T10:21:39;7.25;;;0.93;;
54589;SDS011;40485;53.172;5.416;2022-07-10T10:24:05;6.05;;;1.15;;
54589;SDS011;40485;53.172;5.416;2022-07-10T10:26:31;2.78;;;0.82;;
54589;SDS011;40485;53.172;5.416;2022-07-10T10:28:59;3.80;;;0.80;;
54589;SDS011;40485;53.172;5.416;2022-07-10T10:31:27;5.43;;;1.13;;
54589;SDS011;40485;53.172;5.416;2022-07-10T10:33:55;6.60;;;1.08;;
54589;SDS011;40485;53.172;5.416;2022-07-10T10:36:43;5.35;;;1.15;;
54589;SDS011;40485;53.172;5.416;2022-07-10T10:46:33;4.45;;;0.80;;
54589;SDS011;40485;53.172;5.416;2022-07-10T10:49:06;2.35;;;0.90;;
54589;SDS011;40485;53.172;5.416;2022-07-10T10:54:25;3.97;;;0.90;;
54589;SDS011;40485;53.172;5.416;2022-07-10T11:07:59;4.97;;;0.90;;
54589;SDS011;40485;53.172;5.416;2022-07-10T11:13:02;5.25;;;0.80;;
54589;SDS011;40485;53.172;5.416;2022-07-10T11:15:28;5.32;;;0.70;;
54589;SDS011;40485;53.172;5.416;2022-07-10T11:18:07;3.45;;;0.88;;
54589;SDS011;40485;53.172;5.416;2022-07-10T11:20:37;3.33;;;0.82;;
54589;SDS011;40485;53.172;5.416;2022-07-10T11:26:19;5.10;;;0.80;;
54589;SDS011;40485;53.172;5.416;2022-07-10T11:28:50;2.65;;;0.98;;
54589;SDS011;40485;53.172;5.416;2022-07-10T11:31:18;1.52;;;0.90;;
54589;SDS011;40485;53.172;5.416;2022-07-10T11:33:48;3.70;;;0.80;;
54589;SDS011;40485;53.172;5.416;2022-07-10T11:38:43;2.83;;;0.80;;
54589;SDS011;40485;53.172;5.416;2022-07-10T11:41:13;2.53;;;0.95;;
54589;SDS011;40485;53.172;5.416;2022-07-10T11:43:49;5.43;;;1.13;;
54589;SDS011;40485;53.172;5.416;2022-07-10T11:46:17;5.00;;;0.90;;
54589;SDS011;40485;53.172;5.416;2022-07-10T11:48:44;4.22;;;0.98;;
54589;SDS011;40485;53.172;5.416;2022-07-10T11:56:51;4.15;;;0.70;;
54589;SDS011;40485;53.172;5.416;2022-07-10T11:59:18;2.72;;;0.85;;
54589;SDS011;40485;53.172;5.416;2022-07-10T12:01:48;3.15;;;0.80;;
54589;SDS011;40485;53.172;5.416;2022-07-10T12:04:18;3.90;;;0.95;;
54589;SDS011;40485;53.172;5.416;2022-07-10T12:06:47;5.28;;;0.80;;
54589;SDS011;40485;53.172;5.416;2022-07-10T12:09:14;3.38;;;0.70;;
54589;SDS011;40485;53.172;5.416;2022-07-10T12:11:58;4.35;;;0.80;;
54589;SDS011;40485;53.172;5.416;2022-07-10T12:14:28;4.60;;;0.80;;
54589;SDS011;40485;53.172;5.416;2022-07-10T12:16:55;3.08;;;0.90;;
54589;SDS011;40485;53.172;5.416;2022-07-10T12:19:27;3.13;;;0.95;;
54589;SDS011;40485;53.172;5.416;2022-07-10T12:21:58;6.10;;;0.90;;
54589;SDS011;40485;53.172;5.416;2022-07-10T12:24:24;3.70;;;1.05;;
54589;SDS011;40485;53.172;5.416;2022-07-10T12:26:51;5.05;;;1.48;;
54589;SDS011;40485;53.172;5.416;2022-07-10T12:29:27;6.82;;;1.65;;
54589;SDS011;40485;53.172;5.416;2022-07-10T12:31:55;4.88;;;0.95;;
54589;SDS011;40485;53.172;5.416;2022-07-10T12:34:33;6.75;;;1.00;;
54589;SDS011;40485;53.172;5.416;2022-07-10T12:37:10;3.22;;;0.82;;
54589;SDS011;40485;53.172;5.416;2022-07-10T12:39:37;3.78;;;1.02;;
54589;SDS011;40485;53.172;5.416;2022-07-10T12:42:11;2.88;;;1.05;;
54589;SDS011;40485;53.172;5.416;2022-07-10T12:44:43;2.35;;;0.75;;
54589;SDS011;40485;53.172;5.416;2022-07-10T12:47:14;2.08;;;0.88;;
54589;SDS011;40485;53.172;5.416;2022-07-10T12:49:53;5.45;;;1.25;;
54589;SDS011;40485;53.172;5.416;2022-07-10T12:52:45;3.45;;;1.27;;
54589;SDS011;40485;53.172;5.416;2022-07-10T12:58:19;4.07;;;1.13;;
54589;SDS011;40485;53.172;5.416;2022-07-10T13:00:45;5.10;;;0.90;;
54589;SDS011;40485;53.172;5.416;2022-07-10T13:03:19;5.20;;;1.05;;
54589;SDS011;40485;53.172;5.416;2022-07-10T13:05:47;2.72;;;0.80;;
54589;SDS011;40485;53.172;5.416;2022-07-10T13:10:53;6.90;;;1.40;;
54589;SDS011;40485;53.172;5.416;2022-07-10T13:13:20;3.47;;;0.93;;
54589;SDS011;40485;53.172;5.416;2022-07-10T13:15:47;5.68;;;1.20;;
54589;SDS011;40485;53.172;5.416;2022-07-10T13:18:22;3.25;;;0.90;;
54589;SDS011;40485;53.172;5.416;2022-07-10T13:20:50;5.40;;;1.20;;
54589;SDS011;40485;53.172;5.416;2022-07-10T13:23:23;4.57;;;1.40;;
54589;SDS011;40485;53.172;5.416;2022-07-10T13:25:53;5.47;;;1.33;;
54589;SDS011;40485;53.172;5.416;2022-07-10T13:28:19;7.65;;;1.00;;
54589;SDS011;40485;53.172;5.416;2022-07-10T13:30:45;3.17;;;0.90;;
54589;SDS011;40485;53.172;5.416;2022-07-10T13:33:11;3.75;;;1.20;;
54589;SDS011;40485;53.172;5.416;2022-07-10T13:35:37;4.45;;;1.05;;
54589;SDS011;40485;53.172;5.416;2022-07-10T13:38:04;4.22;;;1.27;;
54589;SDS011;40485;53.172;5.416;2022-07-10T13:40:31;4.43;;;1.63;;
54589;SDS011;40485;53.172;5.416;2022-07-10T13:42:58;3.40;;;1.40;;
54589;SDS011;40485;53.172;5.416;2022-07-10T13:45:25;5.38;;;1.17;;
54589;SDS011;40485;53.172;5.416;2022-07-10T13:48:01;8.13;;;1.65;;
54589;SDS011;40485;53.172;5.416;2022-07-10T13:50:30;3.05;;;1.33;;
54589;SDS011;40485;53.172;5.416;2022-07-10T13:52:55;4.45;;;1.40;;
54589;SDS011;40485;53.172;5.416;2022-07-10T13:55:21;5.25;;;1.08;;
54589;SDS011;40485;53.172;5.416;2022-07-10T13:57:47;3.35;;;1.13;;
54589;SDS011;40485;53.172;5.416;2022-07-10T14:00:13;3.47;;;1.20;;
54589;SDS011;40485;53.172;5.416;2022-07-10T14:02:38;4.43;;;1.50;;
54589;SDS011;40485;53.172;5.416;2022-07-10T14:05:04;5.55;;;1.65;;
54589;SDS011;40485;53.172;5.416;2022-07-10T14:07:31;5.38;;;1.48;;
54589;SDS011;40485;53.172;5.416;2022-07-10T14:09:56;5.07;;;1.40;;
54589;SDS011;40485;53.172;5.416;2022-07-10T14:12:23;6.65;;;1.90;;
54589;SDS011;40485;53.172;5.416;2022-07-10T14:14:49;5.90;;;1.50;;
54589;SDS011;40485;53.172;5.416;2022-07-10T14:17:14;5.63;;;1.70;;
54589;SDS011;40485;53.172;5.416;2022-07-10T14:19:40;7.47;;;1.75;;
54589;SDS011;40485;53.172;5.416;2022-07-10T14:22:06;10.35;;;2.05;;
54589;SDS011;40485;53.172;5.416;2022-07-10T14:24:32;7.13;;;1.90;;
54589;SDS011;40485;53.172;5.416;2022-07-10T14:26:58;6.50;;;1.73;;
54589;SDS011;40485;53.172;5.416;2022-07-10T14:29:24;7.93;;;1.73;;
54589;SDS011;40485;53.172;5.416;2022-07-10T14:31:49;7.18;;;1.73;;
54589;SDS011;40485;53.172;5.416;2022-07-10T14:34:16;9.07;;;2.13;;
54589;SDS011;40485;53.172;5.416;2022-07-10T14:36:43;7.78;;;2.35;;
54589;SDS011;40485;53.172;5.416;2022-07-10T14:39:09;4.00;;;1.80;;
54589;SDS011;40485;53.172;5.416;2022-07-10T14:41:37;6.93;;;1.73;;
54589;SDS011;40485;53.172;5.416;2022-07-10T14:44:03;7.88;;;1.88;;
54589;SDS011;40485;53.172;5.416;2022-07-10T14:46:29;7.93;;;1.95;;
54589;SDS011;40485;53.172;5.416;2022-07-10T14:48:55;4.85;;;1.70;;
54589;SDS011;40485;53.172;5.416;2022-07-10T14:51:21;9.45;;;2.40;;
54589;SDS011;40485;53.172;5.416;2022-07-10T14:53:46;5.90;;;1.80;;
54589;SDS011;40485;53.172;5.416;2022-07-10T14:56:13;8.05;;;2.55;;
54589;SDS011;40485;53.172;5.416;2022-07-10T14:58:41;8.55;;;2.92;;
54589;SDS011;40485;53.172;5.416;2022-07-10T15:01:07;6.75;;;1.80;;
54589;SDS011;40485;53.172;5.416;2022-07-10T15:03:33;6.45;;;1.80;;
54589;SDS011;40485;53.172;5.416;2022-07-10T15:05:58;8.13;;;2.70;;
54589;SDS011;40485;53.172;5.416;2022-07-10T15:08:24;7.25;;;2.38;;
54589;SDS011;40485;53.172;5.416;2022-07-10T15:10:49;7.00;;;1.98;;
54589;SDS011;40485;53.172;5.416;2022-07-10T15:13:15;5.40;;;2.17;;
54589;SDS011;40485;53.172;5.416;2022-07-10T15:15:41;5.50;;;1.60;;
54589;SDS011;40485;53.172;5.416;2022-07-10T15:18:08;4.28;;;1.60;;
54589;SDS011;40485;53.172;5.416;2022-07-10T15:20:34;7.93;;;1.50;;
54589;SDS011;40485;53.172;5.416;2022-07-10T15:23:04;4.40;;;1.35;;
54589;SDS011;40485;53.172;5.416;2022-07-10T15:25:30;5.75;;;1.83;;
54589;SDS011;40485;53.172;5.416;2022-07-10T15:27:55;7.07;;;1.42;;
54589;SDS011;40485;53.172;5.416;2022-07-10T15:30:21;9.48;;;1.80;;
54589;SDS011;40485;53.172;5.416;2022-07-10T15:32:47;4.20;;;1.52;;
54589;SDS011;40485;53.172;5.416;2022-07-10T15:35:13;6.75;;;1.63;;
54589;SDS011;40485;53.172;5.416;2022-07-10T15:37:39;4.07;;;2.05;;
54589;SDS011;40485;53.172;5.416;2022-07-10T15:40:05;4.68;;;1.98;;